sensor_id;sensor_type;location;lat;lon;timestamp;P1;durP1;ratioP1;P2;durP2;ratioP2
67164;SDS011;54093;50.014;19.984;2023-09-08T00:01:16;13.10;;;7.88;;
67164;SDS011;54093;50.014;19.984;2023-09-08T00:10:37;7.95;;;7.22;;
67164;SDS011;54093;50.014;19.984;2023-09-08T00:19:58;8.93;;;7.88;;
67164;SDS011;54093;50.014;19.984;2023-09-08T00:29:19;9.98;;;9.07;;
67164;SDS011;54093;50.014;19.984;2023-09-08T00:38:41;11.02;;;7.97;;
67164;SDS011;54093;50.014;19.984;2023-09-08T00:48:02;20.05;;;8.02;;
67164;SDS011;54093;50.014;19.984;2023-09-08T00:57:24;10.93;;;8.00;;
67164;SDS011;54093;50.014;19.984;2023-09-08T01:06:45;10.52;;;7.78;;
67164;SDS011;54093;50.014;19.984;2023-09-08T01:16:07;8.50;;;7.72;;
67164;SDS011;54093;50.014;19.984;2023-09-08T01:25:28;9.13;;;7.38;;
67164;SDS011;54093;50.014;19.984;2023-09-08T01:34:52;11.48;;;8.05;;
67164;SDS011;54093;50.014;19.984;2023-09-08T01:44:13;8.77;;;7.50;;
67164;SDS011;54093;50.014;19.984;2023-09-08T01:53:34;9.38;;;7.32;;
67164;SDS011;54093;50.014;19.984;2023-09-08T02:02:55;9.50;;;7.43;;
67164;SDS011;54093;50.014;19.984;2023-09-08T02:12:16;7.90;;;7.05;;
67164;SDS011;54093;50.014;19.984;2023-09-08T02:21:39;9.18;;;7.13;;
67164;SDS011;54093;50.014;19.984;2023-09-08T02:31:00;8.65;;;7.93;;
67164;SDS011;54093;50.014;19.984;2023-09-08T02:40:21;12.02;;;7.60;;
67164;SDS011;54093;50.014;19.984;2023-09-08T02:49:42;9.98;;;7.18;;
67164;SDS011;54093;50.014;19.984;2023-09-08T02:59:04;8.63;;;7.80;;
67164;SDS011;54093;50.014;19.984;2023-09-08T03:08:25;9.50;;;8.15;;
67164;SDS011;54093;50.014;19.984;2023-09-08T03:17:46;10.52;;;8.88;;
67164;SDS011;54093;50.014;19.984;2023-09-08T03:27:07;17.17;;;8.45;;
67164;SDS011;54093;50.014;19.984;2023-09-08T03:36:27;13.57;;;10.02;;
67164;SDS011;54093;50.014;19.984;2023-09-08T03:45:49;14.68;;;9.73;;
67164;SDS011;54093;50.014;19.984;2023-09-08T03:55:10;18.08;;;9.60;;
67164;SDS011;54093;50.014;19.984;2023-09-08T04:04:33;31.92;;;13.18;;
67164;SDS011;54093;50.014;19.984;2023-09-08T04:13:54;24.55;;;11.40;;
67164;SDS011;54093;50.014;19.984;2023-09-08T04:23:15;15.43;;;11.07;;
67164;SDS011;54093;50.014;19.984;2023-09-08T04:32:36;15.98;;;11.35;;
67164;SDS011;54093;50.014;19.984;2023-09-08T04:41:58;18.90;;;10.45;;
67164;SDS011;54093;50.014;19.984;2023-09-08T04:51:19;15.70;;;10.05;;
67164;SDS011;54093;50.014;19.984;2023-09-08T05:00:40;15.77;;;10.18;;
67164;SDS011;54093;50.014;19.984;2023-09-08T05:10:01;11.95;;;9.80;;
67164;SDS011;54093;50.014;19.984;2023-09-08T05:19:22;16.58;;;10.43;;
67164;SDS011;54093;50.014;19.984;2023-09-08T05:28:44;15.05;;;11.10;;
67164;SDS011;54093;50.014;19.984;2023-09-08T05:38:05;14.32;;;10.80;;
67164;SDS011;54093;50.014;19.984;2023-09-08T05:47:26;15.82;;;9.48;;
67164;SDS011;54093;50.014;19.984;2023-09-08T05:56:47;12.65;;;10.73;;
67164;SDS011;54093;50.014;19.984;2023-09-08T06:06:08;10.93;;;9.80;;
67164;SDS011;54093;50.014;19.984;2023-09-08T06:15:29;14.65;;;11.20;;
67164;SDS011;54093;50.014;19.984;2023-09-08T06:24:50;12.85;;;9.98;;
67164;SDS011;54093;50.014;19.984;2023-09-08T06:34:11;16.55;;;12.10;;
67164;SDS011;54093;50.014;19.984;2023-09-08T06:43:32;17.35;;;11.80;;
67164;SDS011;54093;50.014;19.984;2023-09-08T06:52:53;14.50;;;11.90;;
67164;SDS011;54093;50.014;19.984;2023-09-08T07:02:14;20.98;;;13.68;;
67164;SDS011;54093;50.014;19.984;2023-09-08T07:11:35;14.90;;;13.30;;
67164;SDS011;54093;50.014;19.984;2023-09-08T07:20:56;16.55;;;13.45;;
67164;SDS011;54093;50.014;19.984;2023-09-08T07:30:17;18.27;;;12.88;;
67164;SDS011;54093;50.014;19.984;2023-09-08T07:39:38;14.40;;;10.05;;
67164;SDS011;54093;50.014;19.984;2023-09-08T07:48:59;10.85;;;9.75;;
67164;SDS011;54093;50.014;19.984;2023-09-08T07:58:22;14.80;;;9.95;;
67164;SDS011;54093;50.014;19.984;2023-09-08T08:07:44;21.10;;;13.25;;
67164;SDS011;54093;50.014;19.984;2023-09-08T08:17:05;17.30;;;9.98;;
67164;SDS011;54093;50.014;19.984;2023-09-08T08:26:27;11.02;;;9.20;;
67164;SDS011;54093;50.014;19.984;2023-09-08T08:35:53;12.60;;;8.45;;
67164;SDS011;54093;50.014;19.984;2023-09-08T08:45:14;8.52;;;7.47;;
67164;SDS011;54093;50.014;19.984;2023-09-08T08:54:40;9.43;;;6.72;;
67164;SDS011;54093;50.014;19.984;2023-09-08T09:04:01;12.63;;;6.72;;
67164;SDS011;54093;50.014;19.984;2023-09-08T09:13:26;7.22;;;6.53;;
67164;SDS011;54093;50.014;19.984;2023-09-08T09:22:47;6.90;;;6.28;;
67164;SDS011;54093;50.014;19.984;2023-09-08T09:32:09;9.90;;;7.27;;
67164;SDS011;54093;50.014;19.984;2023-09-08T09:41:30;9.55;;;5.03;;
67164;SDS011;54093;50.014;19.984;2023-09-08T09:50:51;7.90;;;5.43;;
67164;SDS011;54093;50.014;19.984;2023-09-08T10:00:13;6.53;;;5.10;;
67164;SDS011;54093;50.014;19.984;2023-09-08T10:09:36;6.00;;;5.00;;
67164;SDS011;54093;50.014;19.984;2023-09-08T10:18:57;5.83;;;4.67;;
67164;SDS011;54093;50.014;19.984;2023-09-08T10:37:43;5.07;;;4.68;;
67164;SDS011;54093;50.014;19.984;2023-09-08T10:47:04;5.22;;;4.22;;
67164;SDS011;54093;50.014;19.984;2023-09-08T10:56:27;7.00;;;4.80;;
67164;SDS011;54093;50.014;19.984;2023-09-08T11:05:50;4.88;;;4.57;;
67164;SDS011;54093;50.014;19.984;2023-09-08T11:15:11;4.75;;;4.38;;
67164;SDS011;54093;50.014;19.984;2023-09-08T11:24:34;7.53;;;5.72;;
67164;SDS011;54093;50.014;19.984;2023-09-08T11:33:56;5.57;;;5.07;;
67164;SDS011;54093;50.014;19.984;2023-09-08T11:43:17;4.78;;;4.38;;
67164;SDS011;54093;50.014;19.984;2023-09-08T11:52:38;4.15;;;3.85;;
67164;SDS011;54093;50.014;19.984;2023-09-08T12:02:00;4.13;;;3.83;;
67164;SDS011;54093;50.014;19.984;2023-09-08T12:11:22;8.50;;;4.00;;
67164;SDS011;54093;50.014;19.984;2023-09-08T12:20:43;4.65;;;3.30;;
67164;SDS011;54093;50.014;19.984;2023-09-08T12:30:05;8.20;;;4.07;;
67164;SDS011;54093;50.014;19.984;2023-09-08T12:39:26;6.05;;;4.05;;
67164;SDS011;54093;50.014;19.984;2023-09-08T12:48:47;3.65;;;3.35;;
67164;SDS011;54093;50.014;19.984;2023-09-08T12:58:08;4.15;;;3.65;;
67164;SDS011;54093;50.014;19.984;2023-09-08T13:07:30;7.95;;;4.65;;
67164;SDS011;54093;50.014;19.984;2023-09-08T13:16:51;3.75;;;3.28;;
67164;SDS011;54093;50.014;19.984;2023-09-08T13:26:12;3.97;;;3.22;;
67164;SDS011;54093;50.014;19.984;2023-09-08T13:35:33;7.13;;;4.38;;
67164;SDS011;54093;50.014;19.984;2023-09-08T13:44:54;5.68;;;4.00;;
67164;SDS011;54093;50.014;19.984;2023-09-08T13:54:16;4.00;;;3.67;;
67164;SDS011;54093;50.014;19.984;2023-09-08T14:03:36;4.10;;;3.70;;
67164;SDS011;54093;50.014;19.984;2023-09-08T14:12:58;4.70;;;4.40;;
67164;SDS011;54093;50.014;19.984;2023-09-08T14:22:19;4.13;;;3.67;;
67164;SDS011;54093;50.014;19.984;2023-09-08T14:31:40;3.60;;;3.17;;
67164;SDS011;54093;50.014;19.984;2023-09-08T14:41:02;4.05;;;3.33;;
67164;SDS011;54093;50.014;19.984;2023-09-08T14:50:23;4.80;;;4.35;;
67164;SDS011;54093;50.014;19.984;2023-09-08T14:59:44;6.28;;;3.40;;
67164;SDS011;54093;50.014;19.984;2023-09-08T15:09:06;3.67;;;3.38;;
67164;SDS011;54093;50.014;19.984;2023-09-08T15:18:27;5.18;;;3.90;;
67164;SDS011;54093;50.014;19.984;2023-09-08T15:27:48;3.70;;;3.50;;
67164;SDS011;54093;50.014;19.984;2023-09-08T15:37:09;4.50;;;4.10;;
67164;SDS011;54093;50.014;19.984;2023-09-08T15:46:30;4.25;;;3.95;;
67164;SDS011;54093;50.014;19.984;2023-09-08T15:55:51;5.55;;;3.42;;
67164;SDS011;54093;50.014;19.984;2023-09-08T16:05:12;4.05;;;3.65;;
67164;SDS011;54093;50.014;19.984;2023-09-08T16:14:34;3.92;;;3.53;;
67164;SDS011;54093;50.014;19.984;2023-09-08T16:23:56;5.57;;;5.00;;
67164;SDS011;54093;50.014;19.984;2023-09-08T16:33:16;4.43;;;4.03;;
67164;SDS011;54093;50.014;19.984;2023-09-08T16:42:38;4.85;;;4.50;;
67164;SDS011;54093;50.014;19.984;2023-09-08T16:52:00;4.68;;;4.28;;
67164;SDS011;54093;50.014;19.984;2023-09-08T17:01:21;4.30;;;3.97;;
67164;SDS011;54093;50.014;19.984;2023-09-08T17:10:42;7.80;;;4.63;;
67164;SDS011;54093;50.014;19.984;2023-09-08T17:20:03;8.05;;;4.88;;
67164;SDS011;54093;50.014;19.984;2023-09-08T17:29:25;5.40;;;4.90;;
67164;SDS011;54093;50.014;19.984;2023-09-08T17:38:46;27.00;;;9.75;;
67164;SDS011;54093;50.014;19.984;2023-09-08T17:48:08;7.57;;;6.10;;
67164;SDS011;54093;50.014;19.984;2023-09-08T17:57:30;5.65;;;5.05;;
67164;SDS011;54093;50.014;19.984;2023-09-08T18:06:51;6.30;;;5.22;;
67164;SDS011;54093;50.014;19.984;2023-09-08T18:16:12;5.68;;;5.05;;
67164;SDS011;54093;50.014;19.984;2023-09-08T18:25:33;6.47;;;5.95;;
67164;SDS011;54093;50.014;19.984;2023-09-08T18:34:54;7.88;;;7.13;;
67164;SDS011;54093;50.014;19.984;2023-09-08T18:44:15;13.57;;;8.45;;
67164;SDS011;54093;50.014;19.984;2023-09-08T18:53:36;14.40;;;8.38;;
67164;SDS011;54093;50.014;19.984;2023-09-08T19:02:58;7.68;;;6.95;;
67164;SDS011;54093;50.014;19.984;2023-09-08T19:12:20;10.60;;;8.40;;
67164;SDS011;54093;50.014;19.984;2023-09-08T19:21:41;10.50;;;8.25;;
67164;SDS011;54093;50.014;19.984;2023-09-08T19:31:02;10.82;;;8.60;;
67164;SDS011;54093;50.014;19.984;2023-09-08T19:40:23;11.35;;;7.00;;
67164;SDS011;54093;50.014;19.984;2023-09-08T19:49:44;7.20;;;6.63;;
67164;SDS011;54093;50.014;19.984;2023-09-08T19:59:05;8.00;;;6.15;;
67164;SDS011;54093;50.014;19.984;2023-09-08T20:08:26;6.95;;;6.35;;
67164;SDS011;54093;50.014;19.984;2023-09-08T20:17:47;7.53;;;6.93;;
67164;SDS011;54093;50.014;19.984;2023-09-08T20:27:09;6.65;;;6.15;;
67164;SDS011;54093;50.014;19.984;2023-09-08T20:36:31;7.28;;;6.60;;
67164;SDS011;54093;50.014;19.984;2023-09-08T20:55:14;7.03;;;6.35;;
67164;SDS011;54093;50.014;19.984;2023-09-08T21:04:36;7.95;;;6.38;;
67164;SDS011;54093;50.014;19.984;2023-09-08T21:13:57;7.38;;;6.72;;
67164;SDS011;54093;50.014;19.984;2023-09-08T21:23:18;7.47;;;6.78;;
67164;SDS011;54093;50.014;19.984;2023-09-08T21:32:39;9.70;;;8.82;;
67164;SDS011;54093;50.014;19.984;2023-09-08T21:42:01;7.47;;;6.97;;
67164;SDS011;54093;50.014;19.984;2023-09-08T21:51:23;8.90;;;6.90;;
67164;SDS011;54093;50.014;19.984;2023-09-08T22:00:44;10.23;;;7.57;;
67164;SDS011;54093;50.014;19.984;2023-09-08T22:10:11;7.88;;;6.88;;
67164;SDS011;54093;50.014;19.984;2023-09-08T22:19:32;6.78;;;6.28;;
67164;SDS011;54093;50.014;19.984;2023-09-08T22:28:53;7.88;;;6.93;;
67164;SDS011;54093;50.014;19.984;2023-09-08T22:38:15;7.78;;;6.82;;
67164;SDS011;54093;50.014;19.984;2023-09-08T22:47:36;7.70;;;7.00;;
67164;SDS011;54093;50.014;19.984;2023-09-08T22:56:57;9.32;;;8.43;;
67164;SDS011;54093;50.014;19.984;2023-09-08T23:06:18;9.27;;;7.63;;
67164;SDS011;54093;50.014;19.984;2023-09-08T23:15:39;8.95;;;7.53;;
67164;SDS011;54093;50.014;19.984;2023-09-08T23:25:00;8.07;;;7.25;;
67164;SDS011;54093;50.014;19.984;2023-09-08T23:34:22;9.10;;;8.32;;
67164;SDS011;54093;50.014;19.984;2023-09-08T23:43:43;8.55;;;7.78;;
67164;SDS011;54093;50.014;19.984;2023-09-08T23:53:04;9.90;;;6.93;;
